Terminal Aerodrome Forecast
Issued by NWS

Home | Current Version | Previous Version | Graphics & Text | Print | Product List | Glossary On
Versions: 1 2 3 4 5 6 7 8 9 10 11 12 13 14 15 16 17 18 19 20 21 22
000
FTUS41 KCLE 291140
TAFFDY
TAF
KFDY 291140Z 2912/3012 03006KT 3SM BR BKN002
     FM291330 07006KT 5SM BR BKN007 BKN015
     FM291430 07006KT P6SM SCT015
     FM291630 05008KT P6SM SKC
     FM292300 05003KT P6SM SCT250=

USA.gov is the U.S. government's official web portal to all federal, state and local government web resources and services.